Flight Track Log - Related Links

Times and Time Zones

All times are in EDT time to prevent confusion due to time zone crossing. See the UAL252 flight status page for this flight to view local times or setup timezone preferences in your user account.

Time Position Orientation Groundspeed Altitude Reporting Facility
EDT Latitude Longitude Course Direction KTS MPH feet Rate Location/Type
Fri 11:37:55 AM 33.9333 -118.4500 56° Northeast 191 220 1,800  Level Southern California TRACON
Fri 11:38:55 AM 33.9167 -118.5333 256° West 251 289 3,900 2,368 Climbing Southern California TRACON
Fri 11:39:49 AM 33.8833 -118.6000 239° Southwest 253 291 6,300 1,957 Climbing Southern California TRACON
Fri 11:41:00 AM 34.1833 -117.9667 59° Northeast  Level FlightAware Approximate
Fri 11:41:16 AM 33.8147 -118.5594 154° Southeast 294 338 8,500  Level Los Angeles Center
Fri 11:42:00 AM 34.2544 -117.8534 68° East  Level FlightAware Approximate
Fri 11:42:18 AM 33.8789 -118.4811 45° Northeast 310 357 10,600  Level Los Angeles Center
Fri 11:43:00 AM 34.3216 -117.7279 56° Northeast  Level FlightAware Approximate
Fri 11:43:20 AM 33.9297 -118.4361 36° Northeast 317 365 11,200  Level Los Angeles Center
Fri 11:44:23 AM 34.0025 -118.3117 55° Northeast 370 426 13,100 1,728 Climbing Los Angeles Center
Fri 11:45:25 AM 34.0800 -118.1747 56° Northeast 407 468 14,800 1,887 Climbing Los Angeles Center
Fri 11:46:27 AM 34.1319 -118.0481 64° Northeast 426 490 17,000 2,177 Climbing Los Angeles Center
Fri 11:47:29 AM 34.2011 -117.9222 56° Northeast 445 512 19,300 2,032 Climbing Los Angeles Center
Fri 11:48:31 AM 34.2756 -117.7914 55° Northeast 468 539 21,200 2,081 Climbing Los Angeles Center
Fri 11:49:33 AM 34.3531 -117.6564 55° Northeast 486 559 23,600 2,064 Climbing Los Angeles Center
Fri 11:50:36 AM 34.4361 -117.5103 55° Northeast 498 573 25,500 1,440 Climbing Los Angeles Center
Fri 11:51:38 AM 34.5167 -117.3683 55° Northeast 513 590 26,600 871 Climbing Los Angeles Center
Fri 11:52:40 AM 34.5989 -117.2250 55° Northeast 520 598 27,300 871 Climbing Los Angeles Center
Fri 11:53:42 AM 34.7136 -117.0669 49° Northeast 523 602 28,400 968 Climbing Los Angeles Center
Fri 11:54:44 AM 34.8103 -116.9358 48° Northeast 524 603 29,300 823 Climbing Los Angeles Center
Fri 11:55:46 AM 34.9056 -116.8047 48° Northeast 521 600 30,100 823 Climbing Los Angeles Center
Fri 11:56:48 AM 35.0022 -116.6725 48° Northeast 523 602 31,000 968 Climbing Los Angeles Center
Fri 11:57:50 AM 35.0983 -116.5408 48° Northeast 525 604 32,100 912 Climbing Los Angeles Center
Fri 11:58:53 AM 35.2119 -116.3844 48° Northeast 517 595 32,900 857 Climbing Los Angeles Center
Fri 11:59:56 AM 35.3072 -116.2531 48° Northeast 518 596 33,900 672 Climbing Los Angeles Center
Fri 12:00:58 PM 35.3992 -116.1211 49° Northeast 514 592 34,300 484 Climbing Los Angeles Center
Fri 12:02:00 PM 35.4947 -115.9883 49° Northeast 517 595 34,900 339 Climbing Los Angeles Center
Fri 12:03:02 PM 35.6094 -115.8311 48° Northeast 514 592 35,000 48 Climbing Los Angeles Center
Fri 12:04:04 PM 35.7036 -115.6986 49° Northeast 513 590 35,000  Level Los Angeles Center
Fri 12:05:06 PM 35.7972 -115.5633 50° Northeast 518 596 35,000  Level Los Angeles Center
Fri 12:06:08 PM 35.8917 -115.4283 49° Northeast 522 601 35,000  Level Los Angeles Center
Fri 12:07:10 PM 35.9864 -115.2942 49° Northeast 523 602 35,000  Level Los Angeles Center
Fri 12:08:13 PM 36.0736 -115.1075 60° Northeast 533 613 35,000  Level Los Angeles Center
Fri 12:09:15 PM 36.1075 -114.9314 77° East 531 611 35,000  Level Los Angeles Center
Fri 12:10:17 PM 36.1411 -114.7528 77° East 536 617 35,000  Level Los Angeles Center
Fri 12:11:19 PM 36.1844 -114.5778 73° East 534 615 35,000  Level Los Angeles Center
Fri 12:12:21 PM 36.2275 -114.4036 73° East 532 612 35,000  Level Los Angeles Center
Fri 12:13:23 PM 36.2803 -114.1928 73° East 535 616 35,000  Level Los Angeles Center
Fri 12:14:25 PM 36.3236 -114.0164 73° East 536 617 35,000  Level Los Angeles Center
Fri 12:15:28 PM 36.3658 -113.8394 73° East 536 617 35,000  Level Los Angeles Center
Fri 12:16:30 PM 36.4094 -113.6611 73° East 540 621 35,000  Level Los Angeles Center
Fri 12:17:32 PM 36.4525 -113.4828 73° East 541 623 35,000  Level Los Angeles Center
Fri 12:18:34 PM 36.4944 -113.3050 74° East 539 620 35,000  Level Los Angeles Center
Fri 12:19:36 PM 36.5389 -113.1181 73° East 540 621 35,000  Level Los Angeles Center
Fri 12:20:38 PM 36.5894 -112.9044 74° East 540 621 35,000  Level Los Angeles Center
Fri 12:21:40 PM 36.6303 -112.7272 74° East 537 618 35,000  Level Los Angeles Center
Fri 12:22:42 PM 36.6711 -112.5503 74° East 536 617 35,000  Level Los Angeles Center
Fri 12:23:45 PM 36.7117 -112.3728 74° East 536 617 35,000  Level Los Angeles Center
Fri 12:24:47 PM 36.7525 -112.1953 74° East 536 617 35,000  Level Los Angeles Center
Fri 12:25:49 PM 36.8011 -111.9822 74° East 536 617 35,000  Level Los Angeles Center
Fri 12:26:51 PM 36.8406 -111.8031 75° East 537 618 35,000  Level Los Angeles Center
Fri 12:27:53 PM 36.8803 -111.6239 74° East 538 619 35,000  Level Los Angeles Center
Fri 12:28:55 PM 36.9197 -111.4447 75° East 538 619 35,000  Level Los Angeles Center
Fri 12:29:57 PM 36.9597 -111.2644 74° East 539 620 35,000  Level Los Angeles Center
Fri 12:30:59 PM 37.0061 -111.0478 75° East 541 623 35,000  Level Los Angeles Center
Fri 12:32:04 PM 37.0431 -110.8678 76° East 540 621 35,000  Level Denver Center
Fri 12:33:06 PM 37.0819 -110.6864 75° East 542 624 35,000  Level Denver Center
Fri 12:34:08 PM 37.1206 -110.5061 75° East 538 619 35,000  Level Denver Center
Fri 12:35:10 PM 37.1578 -110.3247 76° East 540 621 35,000  Level Denver Center
Fri 12:36:12 PM 37.1983 -110.1311 75° East 543 625 35,000  Level Denver Center
Fri 12:37:14 PM 37.2397 -109.9283 76° East 538 619 35,000  Level Denver Center
Fri 12:38:16 PM 37.2750 -109.7536 76° East 538 619 35,000  Level Denver Center
Fri 12:39:18 PM 37.3161 -109.5497 76° East 537 618 35,000  Level Denver Center
Fri 12:40:20 PM 37.3508 -109.3747 76° East 538 619 35,000  Level Denver Center
Fri 12:41:22 PM 37.3911 -109.1739 76° East 532 612 35,000  Level Denver Center
Fri 12:42:24 PM 37.4244 -109.0025 76° East 527 606 35,000  Level Denver Center
Fri 12:43:26 PM 37.4636 -108.8031 76° East 524 603 35,000  Level Denver Center
Fri 12:44:28 PM 37.4961 -108.6322 76° East 524 603 35,000  Level Denver Center
Fri 12:45:30 PM 37.5339 -108.4356 76° East 519 597 35,000  Level Denver Center
Fri 12:46:32 PM 37.5658 -108.2681 76° East 514 592 35,000  Level Denver Center
Fri 12:47:34 PM 37.5967 -108.0997 77° East 513 590 35,000  Level Denver Center
Fri 12:48:37 PM 37.6328 -107.9078 77° East 505 581 35,000  Level Denver Center
Fri 12:49:50 PM 37.6631 -107.7442 77° East 501 577 35,000  Level Denver Center
Fri 12:50:53 PM 37.7033 -107.5289 77° East 494 568 35,000  Level Denver Center
Fri 12:51:55 PM 37.7367 -107.3422 77° East 489 563 35,000  Level Denver Center
Fri 12:52:57 PM 37.7658 -107.1831 77° East 487 560 35,000  Level Denver Center
Fri 12:53:59 PM 37.7939 -107.0231 77° East 486 559 35,000  Level Denver Center
Fri 12:55:01 PM 37.8267 -106.8367 77° East 486 559 35,000  Level Denver Center
Fri 12:56:15 PM 37.8539 -106.6792 78° East 483 556 35,000  Level Denver Center
Fri 12:57:30 PM 37.8906 -106.4628 78° East 489 563 35,000  Level Denver Center
Fri 12:58:32 PM 37.9281 -106.2472 77° East 492 566 35,000 48 Level Denver Center
Fri 12:59:34 PM 37.9544 -106.0858 78° East 489 563 35,100  Climbing Denver Center
Fri 01:00:37 PM 37.9867 -105.8958 78° East 492 566 35,000 -48 Descending Denver Center
Fri 01:01:39 PM 38.0086 -105.7636 78° East 485 558 35,000  Level Denver Center
Fri 01:02:42 PM 38.0428 -105.5542 78° East 475 547 35,000 -48 Level Denver Center
Fri 01:03:44 PM 38.0692 -105.3936 78° East 482 555 34,900  Descending Denver Center
Fri 01:04:46 PM 38.0994 -105.2069 78° East 484 557 35,000 49 Climbing Denver Center
Fri 01:05:47 PM 38.1217 -105.0711 78° East 488 562 35,000  Level Denver Center
Fri 01:06:50 PM 38.1553 -104.8553 79° East 487 560 35,000  Level Denver Center
Fri 01:08:04 PM 38.1808 -104.6947 79° East 485 558 35,000 -34 Level Denver Center
Fri 01:09:47 PM 38.2281 -104.3672 80° East 480 552 34,900  Descending Kansas City Center
Fri 01:10:49 PM 38.2514 -104.2103 79° East 476 548 35,000 48 Climbing Kansas City Center
Fri 01:11:51 PM 38.2789 -104.0253 79° East 476 548 35,000 48 Level Kansas City Center
Fri 01:12:53 PM 38.3033 -103.8653 79° East 478 550 35,100  Climbing Kansas City Center
Fri 01:13:55 PM 38.3303 -103.6797 79° East 478 550 35,000 -48 Descending Kansas City Center
Fri 01:14:57 PM 38.3553 -103.5214 79° East 477 549 35,000  Level Kansas City Center
Fri 01:15:59 PM 38.3772 -103.3619 80° East 478 550 35,000  Level Kansas City Center
Fri 01:17:01 PM 38.4042 -103.1739 80° East 481 554 35,000  Level Kansas City Center
Fri 01:18:03 PM 38.4264 -103.0139 80° East 480 552 35,000  Level Kansas City Center
Fri 01:19:05 PM 38.4528 -102.8275 80° East 479 551 35,000  Level Kansas City Center
Fri 01:20:07 PM 38.4750 -102.6689 80° East 477 549 35,000  Level Kansas City Center
Fri 01:21:09 PM 38.5000 -102.4856 80° East 474 545 35,000  Level Kansas City Center
Fri 01:22:11 PM 38.5214 -102.3281 80° East 472 543 35,000  Level Kansas City Center
Fri 01:23:14 PM 38.5461 -102.1444 80° East 470 541 35,000  Level Kansas City Center
Fri 01:24:16 PM 38.5669 -101.9883 80° East 468 539 35,000  Level Kansas City Center
Fri 01:25:18 PM 38.5939 -101.8003 80° East 475 547 35,000  Level Kansas City Center
Fri 01:26:20 PM 38.6136 -101.6428 81° East 473 544 35,000  Level Kansas City Center
Fri 01:27:22 PM 38.6347 -101.4594 82° East 468 539 35,000  Level Kansas City Center
Fri 01:28:24 PM 38.6561 -101.3003 80° East 469 540 35,000  Level Kansas City Center
Fri 01:29:26 PM 38.6764 -101.1364 81° East 477 549 35,000  Level Kansas City Center
Fri 01:30:28 PM 38.6983 -100.9511 81° East 473 544 35,000  Level Kansas City Center
Fri 01:31:30 PM 38.7186 -100.7911 81° East 473 544 35,000  Level Kansas City Center
Fri 01:32:32 PM 38.7403 -100.6078 81° East 468 539 35,000  Level Kansas City Center
Fri 01:33:34 PM 38.7597 -100.4489 81° East 469 540 35,000  Level Kansas City Center
Fri 01:34:36 PM 38.7806 -100.2619 82° East 471 542 35,000  Level Kansas City Center
Fri 01:35:38 PM 38.7986 -100.1017 82° East 473 544 35,000  Level Kansas City Center
Fri 01:36:40 PM 38.8200 -99.9147 82° East 473 544 35,000  Level Kansas City Center
Fri 01:37:42 PM 38.8386 -99.7525 82° East 477 549 35,000  Level Kansas City Center
Fri 01:38:44 PM 38.8581 -99.5633 82° East 479 551 35,000  Level Kansas City Center
Fri 01:39:46 PM 38.8772 -99.3983 81° East 478 550 35,000  Level Kansas City Center
Fri 01:40:48 PM 38.8947 -99.2294 82° East 477 549 35,000  Level Kansas City Center
Fri 01:41:50 PM 38.9128 -99.0608 82° East 474 545 35,000  Level Kansas City Center
Fri 01:42:52 PM 38.9311 -98.8931 82° East 472 543 35,000  Level Kansas City Center
Fri 01:43:54 PM 38.9481 -98.7250 83° East 472 543 35,000  Level Kansas City Center
Fri 01:44:56 PM 38.9653 -98.5542 83° East 478 550 35,000  Level Kansas City Center
Fri 01:45:58 PM 38.9819 -98.3853 83° East 477 549 35,000  Level Kansas City Center
Fri 01:47:00 PM 39.0019 -98.1844 83° East 471 542 35,000  Level Kansas City Center
Fri 01:48:03 PM 39.0183 -98.0161 83° East 474 545 35,000  Level Kansas City Center
Fri 01:49:05 PM 39.0353 -97.8408 83° East 471 542 35,000  Level Kansas City Center
Fri 01:50:07 PM 39.0511 -97.6678 83° East 476 548 35,000  Level Kansas City Center
Fri 01:51:09 PM 39.0658 -97.5039 83° East 481 554 35,000  Level Kansas City Center
Fri 01:52:11 PM 39.0839 -97.3103 83° East 487 560 35,000  Level Kansas City Center
Fri 01:53:13 PM 39.0983 -97.1467 83° East 483 556 35,000  Level Kansas City Center
Fri 01:54:15 PM 39.1153 -96.9542 83° East 483 556 35,000  Level Kansas City Center
Fri 01:55:17 PM 39.1300 -96.7886 83° East 486 559 35,000  Level Kansas City Center
Fri 01:56:19 PM 39.1469 -96.5950 84° East 488 562 35,000  Level Kansas City Center
Fri 01:57:21 PM 39.1589 -96.4264 85° East 491 565 35,000  Level Kansas City Center
Fri 01:58:23 PM 39.1742 -96.2331 84° East 486 559 35,000  Level Kansas City Center
Fri 01:59:25 PM 39.1875 -96.0675 84° East 485 558 35,000  Level Kansas City Center
Fri 02:00:27 PM 39.2003 -95.9011 84° East 486 559 35,000  Level Kansas City Center
Fri 02:01:29 PM 39.2161 -95.7078 84° East 484 557 35,000  Level Kansas City Center
Fri 02:02:31 PM 39.2281 -95.5406 85° East 489 563 35,000  Level Kansas City Center
Fri 02:03:33 PM 39.2431 -95.3400 84° East 487 560 35,000 48 Level Kansas City Center
Fri 02:04:35 PM 39.2553 -95.1508 85° East 492 566 35,100  Climbing Kansas City Center
Fri 02:05:37 PM 39.2667 -94.9989 84° East 484 557 35,000 -48 Descending Kansas City Center
Fri 02:06:39 PM 39.2800 -94.8075 85° East 479 551 35,000  Level Kansas City Center
Fri 02:07:41 PM 39.2931 -94.6406 84° East 484 557 35,000  Level Kansas City Center
Fri 02:09:00 PM 39.3098 -94.4240 84° East  Level FlightAware Approximate
Fri 02:09:45 PM 39.3294 -94.2828 84° East 480 552 35,000  Level Kansas City Center
Fri 02:10:47 PM 39.3481 -94.0881 83° East 486 559 35,000  Level Kansas City Center
Fri 02:11:50 PM 39.3636 -93.9244 83° East 480 552 35,000  Level Kansas City Center
Fri 02:12:52 PM 39.3797 -93.7456 83° East 473 544 35,000  Level Kansas City Center
Fri 02:13:54 PM 39.3958 -93.5803 83° East 470 541 35,000  Level Kansas City Center
Fri 02:14:56 PM 39.4100 -93.4153 84° East 467 537 35,000  Level Kansas City Center
Fri 02:15:58 PM 39.4253 -93.2536 83° East 462 532 35,000  Level Kansas City Center
Fri 02:17:00 PM 39.4414 -93.0572 84° East 463 533 35,000  Level Kansas City Center
Fri 02:18:02 PM 39.4544 -92.8922 84° East 465 535 35,000  Level Kansas City Center
Fri 02:19:04 PM 39.4675 -92.7300 84° East 462 532 35,000  Level Kansas City Center
Fri 02:20:06 PM 39.4803 -92.5694 84° East 458 527 35,000  Level Kansas City Center
Fri 02:21:08 PM 39.4961 -92.3792 84° East 453 521 35,000  Level Kansas City Center
Fri 02:22:10 PM 39.5044 -92.2203 86° East 450 518 35,000  Level Kansas City Center
Fri 02:23:12 PM 39.4942 -92.0633 95° East 444 511 35,000  Level Kansas City Center
Fri 02:24:14 PM 39.4853 -91.9072 94° East 443 510 35,000  Level Kansas City Center
Fri 02:25:16 PM 39.4797 -91.7508 93° East 440 506 35,000  Level Kansas City Center
Fri 02:26:18 PM 39.4722 -91.5783 93° East 439 505 35,000  Level Kansas City Center
Fri 02:27:20 PM 39.4658 -91.4181 93° East 443 510 35,000 48 Level Kansas City Center
Fri 02:28:22 PM 39.4603 -91.2564 92° East 448 516 35,100  Climbing Kansas City Center
Fri 02:29:24 PM 39.4681 -91.0642 87° East 444 511 35,000 -48 Descending Kansas City Center
Fri 02:30:26 PM 39.4831 -90.9050 83° East 444 511 35,000  Level Kansas City Center
Fri 02:31:29 PM 39.4983 -90.7475 83° East 441 507 35,000  Level Kansas City Center
Fri 02:32:31 PM 39.5119 -90.5894 84° East 441 507 35,000  Level Kansas City Center
Fri 02:33:33 PM 39.5258 -90.4319 83° East 440 506 35,000  Level Kansas City Center
Fri 02:34:35 PM 39.5400 -90.2750 83° East 439 505 35,000  Level Kansas City Center
Fri 02:35:37 PM 39.5564 -90.0864 84° East 438 504 35,000  Level Kansas City Center
Fri 02:36:39 PM 39.5692 -89.9300 84° East 437 503 35,000  Level Kansas City Center
Fri 02:37:41 PM 39.5822 -89.7750 84° East 434 499 35,000  Level Kansas City Center
Fri 02:39:00 PM 39.5952 -89.5628 85° East  Level FlightAware Approximate
Fri 02:39:17 PM 39.6014 -89.5392 85° East 433 498 35,000  Level Indianapolis Center
Fri 02:40:19 PM 39.6144 -89.3847 84° East 434 499 35,000  Level Indianapolis Center
Fri 02:41:21 PM 39.6269 -89.1997 85° East 431 496 35,000  Level Indianapolis Center
Fri 02:42:23 PM 39.6400 -89.0453 84° East 431 496 35,000  Level Indianapolis Center
Fri 02:43:25 PM 39.6531 -88.8922 84° East 429 494 35,000  Level Indianapolis Center
Fri 02:45:00 PM 39.6686 -88.6368 85° East  Level FlightAware Approximate
Fri 02:45:57 PM 39.6808 -88.5061 85° East 428 493 35,000  Level Kansas City Center
Fri 02:46:59 PM 39.6933 -88.3517 84° East 429 494 35,000  Level Kansas City Center
Fri 02:48:01 PM 39.7039 -88.1956 85° East 426 490 35,000  Level Kansas City Center
Fri 02:48:35 PM 39.7086 -88.0983 86° East 421 484 35,000  Level Indianapolis Center
Fri 02:49:37 PM 39.7194 -87.9486 85° East 419 482 35,000  Level Indianapolis Center
Fri 02:50:39 PM 39.7294 -87.7975 85° East 421 484 35,000  Level Indianapolis Center
Fri 02:51:41 PM 39.7394 -87.6458 85° East 421 484 35,000  Level Indianapolis Center
Fri 02:52:44 PM 39.7492 -87.4953 85° East 421 484 35,000  Level Indianapolis Center
Fri 02:53:46 PM 39.7603 -87.3150 85° East 418 481 35,000  Level Indianapolis Center
Fri 02:54:48 PM 39.7697 -87.1647 85° East 419 482 35,000  Level Indianapolis Center
Fri 02:55:50 PM 39.7789 -87.0142 85° East 420 483 35,000  Level Indianapolis Center
Fri 02:56:52 PM 39.7872 -86.8628 86° East 421 484 35,000  Level Indianapolis Center
Fri 02:57:54 PM 39.7956 -86.7125 86° East 418 481 35,000  Level Indianapolis Center
Fri 02:58:56 PM 39.8042 -86.5608 86° East 419 482 35,000  Level Indianapolis Center
Fri 02:59:58 PM 39.8139 -86.4078 85° East 422 486 35,000 48 Level Indianapolis Center
Fri 03:01:00 PM 39.8308 -86.2192 83° East 432 497 35,100  Climbing Indianapolis Center
Fri 03:02:02 PM 39.8436 -86.0897 83° East 426 490 35,000 -48 Descending Indianapolis Center
Fri 03:03:04 PM 39.8617 -85.9083 83° East 419 482 35,000  Level Indianapolis Center
Fri 03:04:06 PM 39.8775 -85.7581 82° East 420 483 35,000  Level Indianapolis Center
Fri 03:05:08 PM 39.8922 -85.6083 83° East 419 482 35,000  Level Indianapolis Center
Fri 03:06:10 PM 39.9078 -85.4578 82° East 421 484 35,000  Level Indianapolis Center
Fri 03:07:12 PM 39.9214 -85.3058 83° East 423 487 35,000  Level Indianapolis Center
Fri 03:08:14 PM 39.9361 -85.1544 83° East 423 487 35,000  Level Indianapolis Center
Fri 03:09:16 PM 39.9531 -84.9728 83° East 423 487 35,000 -48 Level Indianapolis Center
Fri 03:10:18 PM 39.9683 -84.8161 83° East 418 481 34,900 -96 Descending Indianapolis Center
Fri 03:11:21 PM 39.9814 -84.6661 83° East 414 476 34,800 -1,776 Descending Indianapolis Center
Fri 03:12:23 PM 40.0233 -84.5158 70° East 443 510 31,200 -1,887 Descending Indianapolis Center
Fri 03:13:25 PM 40.0675 -84.3550 70° East 468 539 30,900 -97 Descending Indianapolis Center
Fri 03:14:27 PM 40.1139 -84.1939 69° East 470 541 31,000 48 Climbing Indianapolis Center
Fri 03:15:29 PM 40.1336 -84.0256 81° East 469 540 31,000  Level Indianapolis Center
Fri 03:16:31 PM 40.1283 -83.8533 92° East 469 540 31,000  Level Indianapolis Center
Fri 03:17:33 PM 40.1242 -83.6839 92° East 461 531 31,000 -48 Level Indianapolis Center
Fri 03:18:35 PM 40.1200 -83.4892 92° East 452 520 30,900 -48 Descending Indianapolis Center
Fri 03:19:37 PM 40.1153 -83.3206 92° East 455 524 30,900  Level Indianapolis Center
Fri 03:20:39 PM 40.1097 -83.1536 92° East 453 521 30,900  Level Indianapolis Center
Fri 03:21:41 PM 40.1044 -82.9878 92° East 451 519 30,900  Level Indianapolis Center
Fri 03:22:43 PM 40.0989 -82.8217 92° East 453 521 30,900 48 Level Indianapolis Center
Fri 03:23:45 PM 40.0939 -82.6550 92° East 456 525 31,000 48 Climbing Indianapolis Center
Fri 03:24:47 PM 40.0869 -82.4883 93° East 455 524 31,000  Level Indianapolis Center
Fri 03:25:49 PM 40.0814 -82.3219 92° East 455 524 31,000  Level Indianapolis Center
Fri 03:26:51 PM 40.0756 -82.1553 93° East 455 524 31,000  Level Indianapolis Center
Fri 03:27:53 PM 40.0678 -81.9589 93° East 459 528 31,000 -48 Level Indianapolis Center
Fri 03:28:55 PM 40.0606 -81.7919 93° East 458 527 30,900  Descending Indianapolis Center
Fri 03:29:57 PM 40.0531 -81.6161 93° East 463 533 31,000 48 Climbing Indianapolis Center
Fri 03:31:00 PM 40.0458 -81.4472 93° East 464 534 31,000  Level Indianapolis Center
Fri 03:32:02 PM 40.0372 -81.2778 94° East 465 535 31,000  Level Indianapolis Center
Fri 03:33:04 PM 40.0289 -81.1089 94° East 465 535 31,000  Level Indianapolis Center
Fri 03:34:06 PM 40.0214 -80.9394 93° East 465 535 31,000  Level Indianapolis Center
Fri 03:35:08 PM 40.0075 -80.7717 96° East 462 532 31,000  Level Indianapolis Center
Fri 03:36:10 PM 39.9733 -80.5831 103° East 464 534 31,000  Level Cleveland Center
Fri 03:37:10 PM 39.9400 -80.4178 105° East 464 534 31,000  Level Cleveland Center
Fri 03:38:10 PM 39.9061 -80.2556 105° East 464 534 31,000  Level Cleveland Center
Fri 03:39:10 PM 39.8722 -80.0936 105° East 464 534 31,000  Level Cleveland Center
Fri 03:40:10 PM 39.8381 -79.9314 105° East 464 534 31,000  Level Cleveland Center
Fri 03:41:10 PM 39.8036 -79.7697 105° East 464 534 31,000 -350 Level Cleveland Center
Fri 03:42:10 PM 39.7756 -79.6214 104° East 469 540 30,300 -850 Descending Cleveland Center
Fri 03:43:10 PM 39.7406 -79.4600 106° East 469 540 29,300 -1,700 Descending Cleveland Center
Fri 03:44:10 PM 39.7078 -79.2986 105° East 469 540 26,900 -2,478 Descending Cleveland Center
Fri 03:44:42 PM 39.6867 -79.2050 106° East 487 560 25,500 -1,239 Descending Washington Center
Fri 03:45:42 PM 39.6556 -79.0525 105° East 478 550 25,000 -864 Descending Washington Center
Fri 03:46:40 PM 39.6111 -78.8617 107° East 492 566 23,800 -1,261 Descending Washington Center
Fri 03:47:41 PM 39.5569 -78.7003 113° Southeast 492 566 22,500 -885 Descending Washington Center
Fri 03:48:42 PM 39.4856 -78.5547 122° Southeast 480 552 22,000 -353 Descending Washington Center
Fri 03:49:40 PM 39.4244 -78.4044 118° Southeast 480 552 21,800 -1,966 Descending Washington Center
Fri 03:50:41 PM 39.4117 -78.2375 96° East 460 529 18,100 -3,344 Descending Washington Center
Fri 03:51:42 PM 39.4006 -78.0758 95° East 454 522 15,000 -1,587 Descending Washington Center
Fri 03:52:42 PM 39.3994 -77.9200 90° East 444 511 14,900 -950 Descending Washington Center
Fri 03:53:42 PM 39.4106 -77.7672 85° East 429 494 13,100 -1,729 Descending Washington Center
Fri 03:54:40 PM 39.4236 -77.6228 83° East 421 484 11,500 -1,059 Descending Washington Center
Fri 03:55:41 PM 39.4339 -77.4967 84° East 381 438 11,000 -248 Descending Washington Center
Fri 03:56:41 PM 39.4419 -77.3919 84° East 332 382 11,000  Level Washington Center
Fri 03:57:52 PM 39.4667 -77.2667 76° East 306 352 11,000 -412 Level Potomac TRACON
Fri 03:58:52 PM 39.4667 -77.1500 90° East 306 352 10,100 -1,190 Descending Potomac TRACON
Fri 03:59:53 PM 39.4667 -77.0500 90° East 298 343 8,600 -1,488 Descending Potomac TRACON
Fri 04:00:53 PM 39.4667 -76.9333 90° East 291 335 7,100 -1,513 Descending Potomac TRACON
Fri 04:01:48 PM 39.4167 -76.8667 134° Southeast 285 328 5,700 -1,461 Descending Potomac TRACON
Fri 04:02:48 PM 39.3333 -76.8667 180° South 269 310 4,300 -1,286 Descending Potomac TRACON
Fri 04:03:54 PM 39.2500 -76.8667 180° South 267 307 3,000 -619 Descending Potomac TRACON
Fri 04:04:54 PM 39.1833 -76.8500 169° South 233 268 3,000  Level Potomac TRACON

Login

Don't have an account? Register now (free) for customized features, flight alerts, and more!